sensor_id;sensor_type;location;lat;lon;timestamp;pressure;altitude;pressure_sealevel;temperature;humidity
54978;BME280;40873;47.522;19.106;2022-08-05T00:00:14;100332.56;;;22.67;56.89
54978;BME280;40873;47.522;19.106;2022-08-05T00:03:02;100324.66;;;22.66;55.06
54978;BME280;40873;47.522;19.106;2022-08-05T00:05:31;100332.03;;;22.72;55.15
54978;BME280;40873;47.522;19.106;2022-08-05T00:08:18;100337.13;;;22.67;54.91
54978;BME280;40873;47.522;19.106;2022-08-05T00:11:04;100330.56;;;22.61;55.46
54978;BME280;40873;47.522;19.106;2022-08-05T00:13:49;100323.34;;;22.62;55.41
54978;BME280;40873;47.522;19.106;2022-08-05T00:16:18;100330.03;;;22.74;53.83
54978;BME280;40873;47.522;19.106;2022-08-05T00:19:02;100330.38;;;22.71;55.39
54978;BME280;40873;47.522;19.106;2022-08-05T00:21:29;100333.91;;;22.63;55.43
54978;BME280;40873;47.522;19.106;2022-08-05T00:24:01;100328.03;;;22.52;57.81
54978;BME280;40873;47.522;19.106;2022-08-05T00:26:37;100331.19;;;22.71;55.81
54978;BME280;40873;47.522;19.106;2022-08-05T00:29:12;100330.56;;;22.61;55.46
54978;BME280;40873;47.522;19.106;2022-08-05T00:31:39;100333.06;;;22.63;56.00
54978;BME280;40873;47.522;19.106;2022-08-05T00:34:25;100322.66;;;22.52;57.52
54978;BME280;40873;47.522;19.106;2022-08-05T00:37:12;100328.22;;;22.50;55.70
54978;BME280;40873;47.522;19.106;2022-08-05T00:39:40;100330.91;;;22.42;56.88
54978;BME280;40873;47.522;19.106;2022-08-05T00:42:38;100329.56;;;22.38;57.15
54978;BME280;40873;47.522;19.106;2022-08-05T00:45:13;100321.88;;;22.27;57.59
54978;BME280;40873;47.522;19.106;2022-08-05T00:47:40;100325.22;;;22.29;56.30
54978;BME280;40873;47.522;19.106;2022-08-05T00:50:27;100332.25;;;22.30;58.62
54978;BME280;40873;47.522;19.106;2022-08-05T00:52:54;100332.09;;;22.31;57.42
54978;BME280;40873;47.522;19.106;2022-08-05T00:55:22;100327.25;;;22.27;58.29
54978;BME280;40873;47.522;19.106;2022-08-05T00:58:07;100324.72;;;22.17;58.13
54978;BME280;40873;47.522;19.106;2022-08-05T01:00:38;100321.00;;;22.18;58.45
54978;BME280;40873;47.522;19.106;2022-08-05T01:03:05;100316.34;;;22.12;59.23
54978;BME280;40873;47.522;19.106;2022-08-05T01:05:33;100327.38;;;22.01;58.55
54978;BME280;40873;47.522;19.106;2022-08-05T01:08:00;100320.50;;;22.06;59.81
54978;BME280;40873;47.522;19.106;2022-08-05T01:10:48;100323.50;;;21.95;60.80
54978;BME280;40873;47.522;19.106;2022-08-05T01:13:35;100313.41;;;21.89;60.10
54978;BME280;40873;47.522;19.106;2022-08-05T01:16:42;100321.13;;;21.76;60.38
54978;BME280;40873;47.522;19.106;2022-08-05T01:19:28;100314.59;;;21.86;60.80
54978;BME280;40873;47.522;19.106;2022-08-05T01:30:28;100318.59;;;21.66;62.18
54978;BME280;40873;47.522;19.106;2022-08-05T01:33:04;100313.22;;;21.58;62.05
54978;BME280;40873;47.522;19.106;2022-08-05T01:35:34;100313.88;;;21.52;62.31
54978;BME280;40873;47.522;19.106;2022-08-05T01:38:19;100318.88;;;21.55;63.41
54978;BME280;40873;47.522;19.106;2022-08-05T01:40:58;100315.06;;;21.57;63.00
54978;BME280;40873;47.522;19.106;2022-08-05T01:43:28;100316.38;;;21.45;63.46
54978;BME280;40873;47.522;19.106;2022-08-05T01:45:57;100307.66;;;21.43;63.44
54978;BME280;40873;47.522;19.106;2022-08-05T01:48:35;100321.91;;;21.44;63.73
54978;BME280;40873;47.522;19.106;2022-08-05T01:51:03;100319.22;;;21.44;64.11
54978;BME280;40873;47.522;19.106;2022-08-05T01:53:38;100320.69;;;21.38;64.27
54978;BME280;40873;47.522;19.106;2022-08-05T01:56:31;100322.53;;;21.38;64.85
54978;BME280;40873;47.522;19.106;2022-08-05T01:59:20;100316.34;;;21.37;65.34
54978;BME280;40873;47.522;19.106;2022-08-05T02:01:50;100315.47;;;21.28;65.86
54978;BME280;40873;47.522;19.106;2022-08-05T02:04:21;100315.41;;;21.20;65.55
54978;BME280;40873;47.522;19.106;2022-08-05T02:06:51;100311.22;;;21.26;65.88
54978;BME280;40873;47.522;19.106;2022-08-05T02:09:18;100316.09;;;21.22;66.95
54978;BME280;40873;47.522;19.106;2022-08-05T02:11:50;100319.91;;;21.20;66.68
54978;BME280;40873;47.522;19.106;2022-08-05T02:14:27;100317.56;;;21.17;67.25
54978;BME280;40873;47.522;19.106;2022-08-05T02:17:05;100323.94;;;21.16;67.39
54978;BME280;40873;47.522;19.106;2022-08-05T02:19:47;100321.25;;;21.07;66.39
54978;BME280;40873;47.522;19.106;2022-08-05T02:22:18;100321.44;;;21.14;68.30
54978;BME280;40873;47.522;19.106;2022-08-05T02:24:57;100316.53;;;21.10;68.54
54978;BME280;40873;47.522;19.106;2022-08-05T02:27:29;100319.59;;;21.15;67.75
54978;BME280;40873;47.522;19.106;2022-08-05T02:30:18;100319.09;;;21.19;68.42
54978;BME280;40873;47.522;19.106;2022-08-05T02:32:49;100316.06;;;21.14;68.62
54978;BME280;40873;47.522;19.106;2022-08-05T02:35:21;100309.31;;;21.02;68.88
54978;BME280;40873;47.522;19.106;2022-08-05T02:38:03;100309.94;;;20.96;69.56
54978;BME280;40873;47.522;19.106;2022-08-05T02:40:36;100316.78;;;20.90;69.90
54978;BME280;40873;47.522;19.106;2022-08-05T02:43:07;100312.47;;;20.97;70.82
54978;BME280;40873;47.522;19.106;2022-08-05T02:45:37;100312.88;;;20.85;69.40
54978;BME280;40873;47.522;19.106;2022-08-05T02:48:23;100310.16;;;20.76;71.02
54978;BME280;40873;47.522;19.106;2022-08-05T02:51:00;100312.84;;;20.76;69.88
54978;BME280;40873;47.522;19.106;2022-08-05T02:53:32;100309.88;;;20.79;70.16
54978;BME280;40873;47.522;19.106;2022-08-05T02:56:07;100315.88;;;20.73;71.03
54978;BME280;40873;47.522;19.106;2022-08-05T02:58:42;100317.34;;;20.68;70.31
54978;BME280;40873;47.522;19.106;2022-08-05T03:01:19;100303.47;;;20.72;70.72
54978;BME280;40873;47.522;19.106;2022-08-05T03:03:52;100304.41;;;20.63;70.94
54978;BME280;40873;47.522;19.106;2022-08-05T03:06:38;100308.75;;;20.64;71.00
54978;BME280;40873;47.522;19.106;2022-08-05T03:09:25;100304.03;;;20.58;70.96
54978;BME280;40873;47.522;19.106;2022-08-05T03:12:03;100302.88;;;20.61;71.46
54978;BME280;40873;47.522;19.106;2022-08-05T03:14:30;100306.19;;;20.55;71.47
54978;BME280;40873;47.522;19.106;2022-08-05T03:16:57;100303.69;;;20.53;72.30
54978;BME280;40873;47.522;19.106;2022-08-05T03:19:24;100296.47;;;20.53;71.62
54978;BME280;40873;47.522;19.106;2022-08-05T03:22:02;100297.53;;;20.43;74.61
54978;BME280;40873;47.522;19.106;2022-08-05T03:24:42;100302.31;;;20.31;74.91
54978;BME280;40873;47.522;19.106;2022-08-05T03:27:17;100298.09;;;20.29;75.39
54978;BME280;40873;47.522;19.106;2022-08-05T03:29:44;100301.50;;;20.13;75.00
54978;BME280;40873;47.522;19.106;2022-08-05T03:32:31;100301.81;;;20.10;76.08
54978;BME280;40873;47.522;19.106;2022-08-05T03:34:58;100303.19;;;20.14;75.67
54978;BME280;40873;47.522;19.106;2022-08-05T03:37:26;100297.38;;;20.18;75.82
54978;BME280;40873;47.522;19.106;2022-08-05T03:39:58;100304.91;;;20.23;74.22
54978;BME280;40873;47.522;19.106;2022-08-05T03:42:28;100306.91;;;20.21;73.18
54978;BME280;40873;47.522;19.106;2022-08-05T03:44:58;100306.09;;;20.20;73.49
54978;BME280;40873;47.522;19.106;2022-08-05T03:47:45;100298.72;;;20.22;74.52
54978;BME280;40873;47.522;19.106;2022-08-05T03:50:15;100304.84;;;20.15;73.71
54978;BME280;40873;47.522;19.106;2022-08-05T03:52:57;100305.19;;;20.12;72.21
54978;BME280;40873;47.522;19.106;2022-08-05T03:55:54;100298.22;;;20.19;71.37
54978;BME280;40873;47.522;19.106;2022-08-05T03:58:45;100301.19;;;20.16;73.43
54978;BME280;40873;47.522;19.106;2022-08-05T04:01:13;100304.06;;;20.22;73.11
54978;BME280;40873;47.522;19.106;2022-08-05T04:03:47;100303.06;;;20.23;73.20
54978;BME280;40873;47.522;19.106;2022-08-05T04:06:35;100301.00;;;20.35;73.30
54978;BME280;40873;47.522;19.106;2022-08-05T04:09:03;100308.19;;;20.35;72.82
54978;BME280;40873;47.522;19.106;2022-08-05T04:11:32;100305.34;;;20.36;72.91
54978;BME280;40873;47.522;19.106;2022-08-05T04:14:17;100310.59;;;20.38;72.73
54978;BME280;40873;47.522;19.106;2022-08-05T04:16:57;100311.41;;;20.38;74.01
54978;BME280;40873;47.522;19.106;2022-08-05T04:19:26;100304.56;;;20.44;72.94
54978;BME280;40873;47.522;19.106;2022-08-05T04:21:53;100302.50;;;20.56;72.74
54978;BME280;40873;47.522;19.106;2022-08-05T04:24:42;100304.34;;;20.55;72.07
54978;BME280;40873;47.522;19.106;2022-08-05T04:27:18;100304.03;;;20.58;73.95
54978;BME280;40873;47.522;19.106;2022-08-05T04:30:06;100303.25;;;20.66;72.13
54978;BME280;40873;47.522;19.106;2022-08-05T04:32:34;100303.81;;;20.77;70.14
54978;BME280;40873;47.522;19.106;2022-08-05T04:35:02;100302.50;;;20.82;71.15
54978;BME280;40873;47.522;19.106;2022-08-05T04:37:30;100303.53;;;20.89;70.86
54978;BME280;40873;47.522;19.106;2022-08-05T04:40:18;100299.59;;;21.01;70.62
54978;BME280;40873;47.522;19.106;2022-08-05T04:42:45;100303.13;;;21.10;70.54
54978;BME280;40873;47.522;19.106;2022-08-05T04:45:12;100300.94;;;21.13;69.98
54978;BME280;40873;47.522;19.106;2022-08-05T04:48:10;100302.50;;;21.24;69.29
54978;BME280;40873;47.522;19.106;2022-08-05T04:50:53;100301.72;;;21.31;67.26
54978;BME280;40873;47.522;19.106;2022-08-05T04:53:35;100307.66;;;21.51;65.93
54978;BME280;40873;47.522;19.106;2022-08-05T04:56:05;100306.66;;;21.60;65.41
54978;BME280;40873;47.522;19.106;2022-08-05T04:58:53;100311.06;;;21.78;64.31
54978;BME280;40873;47.522;19.106;2022-08-05T05:01:19;100315.78;;;21.92;66.44
54978;BME280;40873;47.522;19.106;2022-08-05T05:04:06;100302.69;;;22.05;63.60
54978;BME280;40873;47.522;19.106;2022-08-05T05:06:35;100303.75;;;22.12;62.78
54978;BME280;40873;47.522;19.106;2022-08-05T05:09:11;100297.34;;;22.22;61.77
54978;BME280;40873;47.522;19.106;2022-08-05T05:11:44;100299.69;;;22.33;61.28
54978;BME280;40873;47.522;19.106;2022-08-05T05:14:23;100298.00;;;22.48;64.95
54978;BME280;40873;47.522;19.106;2022-08-05T05:16:59;100293.25;;;22.58;60.18
54978;BME280;40873;47.522;19.106;2022-08-05T05:19:35;100294.56;;;22.70;60.54
54978;BME280;40873;47.522;19.106;2022-08-05T05:22:13;100291.53;;;22.82;59.00
54978;BME280;40873;47.522;19.106;2022-08-05T05:24:53;100298.94;;;22.88;59.11
54978;BME280;40873;47.522;19.106;2022-08-05T05:27:29;100281.09;;;22.95;58.68
54978;BME280;40873;47.522;19.106;2022-08-05T05:30:13;100292.31;;;22.98;59.20
54978;BME280;40873;47.522;19.106;2022-08-05T05:33:02;100288.19;;;23.19;56.52
54978;BME280;40873;47.522;19.106;2022-08-05T05:35:44;100285.66;;;23.25;58.08
54978;BME280;40873;47.522;19.106;2022-08-05T05:38:13;100285.78;;;23.32;56.19
54978;BME280;40873;47.522;19.106;2022-08-05T05:40:41;100281.13;;;23.49;55.95
54978;BME280;40873;47.522;19.106;2022-08-05T05:43:22;100291.84;;;23.57;53.31
54978;BME280;40873;47.522;19.106;2022-08-05T05:46:09;100286.59;;;23.72;54.14
54978;BME280;40873;47.522;19.106;2022-08-05T05:48:45;100283.25;;;23.85;52.66
54978;BME280;40873;47.522;19.106;2022-08-05T05:51:31;100284.53;;;23.97;50.79
54978;BME280;40873;47.522;19.106;2022-08-05T05:54:16;100277.38;;;24.04;53.58
54978;BME280;40873;47.522;19.106;2022-08-05T05:56:45;100283.28;;;24.08;54.16
54978;BME280;40873;47.522;19.106;2022-08-05T05:59:13;100281.34;;;24.16;53.30
54978;BME280;40873;47.522;19.106;2022-08-05T06:01:41;100278.44;;;24.18;54.46
54978;BME280;40873;47.522;19.106;2022-08-05T06:04:23;100284.25;;;24.29;52.84
54978;BME280;40873;47.522;19.106;2022-08-05T06:06:50;100276.59;;;24.41;50.44
54978;BME280;40873;47.522;19.106;2022-08-05T06:09:17;100277.63;;;24.55;51.06
54978;BME280;40873;47.522;19.106;2022-08-05T06:12:04;100277.88;;;24.60;51.45
54978;BME280;40873;47.522;19.106;2022-08-05T06:14:35;100276.41;;;24.72;49.55
54978;BME280;40873;47.522;19.106;2022-08-05T06:17:05;100282.28;;;24.91;48.77
54978;BME280;40873;47.522;19.106;2022-08-05T06:19:50;100284.78;;;25.07;47.09
54978;BME280;40873;47.522;19.106;2022-08-05T06:22:28;100279.47;;;25.13;47.58
54978;BME280;40873;47.522;19.106;2022-08-05T06:24:56;100280.84;;;25.24;49.00
54978;BME280;40873;47.522;19.106;2022-08-05T06:27:22;100276.38;;;25.31;46.74
54978;BME280;40873;47.522;19.106;2022-08-05T06:30:10;100274.63;;;25.45;44.22
54978;BME280;40873;47.522;19.106;2022-08-05T06:32:47;100275.94;;;25.49;46.43
54978;BME280;40873;47.522;19.106;2022-08-05T06:35:16;100280.66;;;25.62;45.99
54978;BME280;40873;47.522;19.106;2022-08-05T06:38:03;100284.91;;;25.71;45.65
54978;BME280;40873;47.522;19.106;2022-08-05T06:40:38;100279.03;;;25.82;47.44
54978;BME280;40873;47.522;19.106;2022-08-05T06:43:10;100278.94;;;25.97;45.39
54978;BME280;40873;47.522;19.106;2022-08-05T06:45:58;100279.38;;;26.01;47.25
54978;BME280;40873;47.522;19.106;2022-08-05T06:48:32;100277.84;;;26.13;45.47
54978;BME280;40873;47.522;19.106;2022-08-05T06:51:21;100273.81;;;26.30;42.23
54978;BME280;40873;47.522;19.106;2022-08-05T06:53:57;100278.38;;;26.51;40.99
54978;BME280;40873;47.522;19.106;2022-08-05T06:56:25;100275.34;;;26.67;42.89
54978;BME280;40873;47.522;19.106;2022-08-05T06:58:53;100273.09;;;26.71;43.34
54978;BME280;40873;47.522;19.106;2022-08-05T07:01:20;100279.59;;;26.83;43.67
54978;BME280;40873;47.522;19.106;2022-08-05T07:03:48;100270.09;;;26.94;40.02
54978;BME280;40873;47.522;19.106;2022-08-05T07:06:15;100267.81;;;27.04;40.57
54978;BME280;40873;47.522;19.106;2022-08-05T07:08:46;100268.13;;;27.16;39.96
54978;BME280;40873;47.522;19.106;2022-08-05T07:11:20;100270.66;;;27.24;40.57
54978;BME280;40873;47.522;19.106;2022-08-05T07:13:48;100272.34;;;27.31;40.33
54978;BME280;40873;47.522;19.106;2022-08-05T07:16:41;100272.00;;;27.48;39.88
54978;BME280;40873;47.522;19.106;2022-08-05T07:19:37;100277.41;;;27.54;40.39
54978;BME280;40873;47.522;19.106;2022-08-05T07:22:24;100269.72;;;27.65;39.81
54978;BME280;40873;47.522;19.106;2022-08-05T07:24:57;100267.50;;;27.75;39.83
54978;BME280;40873;47.522;19.106;2022-08-05T07:27:24;100266.03;;;27.85;39.69
54978;BME280;40873;47.522;19.106;2022-08-05T07:30:11;100262.06;;;27.95;37.75
54978;BME280;40873;47.522;19.106;2022-08-05T07:32:53;100258.53;;;28.07;36.44
54978;BME280;40873;47.522;19.106;2022-08-05T07:35:23;100254.75;;;28.15;38.29
54978;BME280;40873;47.522;19.106;2022-08-05T07:38:10;100264.16;;;28.46;34.57
54978;BME280;40873;47.522;19.106;2022-08-05T07:40:57;100259.13;;;28.49;34.88
54978;BME280;40873;47.522;19.106;2022-08-05T07:43:42;100254.13;;;28.53;35.98
54978;BME280;40873;47.522;19.106;2022-08-05T07:46:09;100256.19;;;28.64;34.66
54978;BME280;40873;47.522;19.106;2022-08-05T07:48:52;100249.63;;;28.85;33.43
54978;BME280;40873;47.522;19.106;2022-08-05T07:51:32;100246.56;;;28.75;34.36
54978;BME280;40873;47.522;19.106;2022-08-05T07:54:06;100248.19;;;28.89;33.83
54978;BME280;40873;47.522;19.106;2022-08-05T07:56:36;100244.63;;;29.02;34.48
54978;BME280;40873;47.522;19.106;2022-08-05T07:59:23;100248.72;;;29.17;34.27
54978;BME280;40873;47.522;19.106;2022-08-05T08:02:09;100248.97;;;29.09;33.12
54978;BME280;40873;47.522;19.106;2022-08-05T08:04:44;100249.94;;;29.28;33.58
54978;BME280;40873;47.522;19.106;2022-08-05T08:07:12;100248.34;;;29.45;34.21
54978;BME280;40873;47.522;19.106;2022-08-05T08:09:40;100252.63;;;29.66;33.25
54978;BME280;40873;47.522;19.106;2022-08-05T08:12:07;100253.72;;;29.90;32.19
54978;BME280;40873;47.522;19.106;2022-08-05T08:14:54;100248.28;;;29.90;32.91
54978;BME280;40873;47.522;19.106;2022-08-05T08:17:22;100251.91;;;30.09;32.61
54978;BME280;40873;47.522;19.106;2022-08-05T08:19:53;100247.78;;;30.00;31.12
54978;BME280;40873;47.522;19.106;2022-08-05T08:22:40;100245.28;;;30.23;31.55
54978;BME280;40873;47.522;19.106;2022-08-05T08:25:08;100248.25;;;30.22;31.77
54978;BME280;40873;47.522;19.106;2022-08-05T08:27:42;100250.50;;;30.25;32.06
54978;BME280;40873;47.522;19.106;2022-08-05T08:30:14;100247.94;;;30.55;31.67
54978;BME280;40873;47.522;19.106;2022-08-05T08:33:06;100239.03;;;30.84;30.83
54978;BME280;40873;47.522;19.106;2022-08-05T08:35:35;100240.00;;;30.90;31.42
54978;BME280;40873;47.522;19.106;2022-08-05T08:38:19;100243.16;;;31.05;30.75
54978;BME280;40873;47.522;19.106;2022-08-05T08:41:05;100246.19;;;31.16;30.84
54978;BME280;40873;47.522;19.106;2022-08-05T08:43:36;100238.31;;;31.07;30.60
54978;BME280;40873;47.522;19.106;2022-08-05T08:46:28;100236.72;;;31.18;31.54
54978;BME280;40873;47.522;19.106;2022-08-05T08:48:57;100237.31;;;31.20;30.57
54978;BME280;40873;47.522;19.106;2022-08-05T08:51:53;100240.81;;;31.27;30.09
54978;BME280;40873;47.522;19.106;2022-08-05T08:54:39;100239.38;;;31.25;30.35
54978;BME280;40873;47.522;19.106;2022-08-05T08:57:07;100234.09;;;31.30;30.08
54978;BME280;40873;47.522;19.106;2022-08-05T08:59:39;100221.81;;;31.51;29.93
54978;BME280;40873;47.522;19.106;2022-08-05T09:02:13;100232.13;;;31.79;30.69
54978;BME280;40873;47.522;19.106;2022-08-05T09:04:43;100238.09;;;31.69;29.40
54978;BME280;40873;47.522;19.106;2022-08-05T09:07:24;100229.03;;;31.99;28.86
54978;BME280;40873;47.522;19.106;2022-08-05T09:09:55;100227.63;;;32.19;29.15
54978;BME280;40873;47.522;19.106;2022-08-05T09:12:22;100215.53;;;32.27;28.71
54978;BME280;40873;47.522;19.106;2022-08-05T09:14:55;100229.06;;;32.22;28.43
54978;BME280;40873;47.522;19.106;2022-08-05T09:17:32;100222.06;;;32.14;28.86
54978;BME280;40873;47.522;19.106;2022-08-05T09:20:12;100217.19;;;32.52;30.95
54978;BME280;40873;47.522;19.106;2022-08-05T09:23:09;100222.72;;;32.92;28.94
54978;BME280;40873;47.522;19.106;2022-08-05T09:25:49;100209.38;;;32.95;28.50
54978;BME280;40873;47.522;19.106;2022-08-05T09:28:31;100199.09;;;33.14;28.67
54978;BME280;40873;47.522;19.106;2022-08-05T09:31:03;100212.84;;;33.31;29.08
54978;BME280;40873;47.522;19.106;2022-08-05T09:36:22;100191.78;;;33.32;26.97
54978;BME280;40873;47.522;19.106;2022-08-05T09:39:05;100196.00;;;33.68;27.83
54978;BME280;40873;47.522;19.106;2022-08-05T09:42:03;100192.19;;;34.02;27.48
54978;BME280;40873;47.522;19.106;2022-08-05T09:47:13;100186.59;;;34.14;26.22
54978;BME280;40873;47.522;19.106;2022-08-05T09:49:49;100190.59;;;34.23;26.58
54978;BME280;40873;47.522;19.106;2022-08-05T09:52:34;100187.25;;;34.38;27.17
54978;BME280;40873;47.522;19.106;2022-08-05T09:55:10;100187.69;;;34.30;26.07
54978;BME280;40873;47.522;19.106;2022-08-05T09:57:58;100189.34;;;33.64;26.24
54978;BME280;40873;47.522;19.106;2022-08-05T10:00:26;100189.03;;;33.60;27.67
54978;BME280;40873;47.522;19.106;2022-08-05T10:02:56;100186.38;;;33.99;25.92
54978;BME280;40873;47.522;19.106;2022-08-05T10:05:26;100181.50;;;34.40;25.99
54978;BME280;40873;47.522;19.106;2022-08-05T10:08:02;100171.84;;;34.54;26.34
54978;BME280;40873;47.522;19.106;2022-08-05T10:10:49;100168.25;;;34.31;25.40
54978;BME280;40873;47.522;19.106;2022-08-05T10:13:46;100172.25;;;34.24;25.81
54978;BME280;40873;47.522;19.106;2022-08-05T10:16:30;100161.78;;;34.59;24.84
54978;BME280;40873;47.522;19.106;2022-08-05T10:19:00;100165.09;;;35.05;24.73
54978;BME280;40873;47.522;19.106;2022-08-05T10:21:34;100164.59;;;34.86;25.18
54978;BME280;40873;47.522;19.106;2022-08-05T10:24:10;100164.72;;;34.97;25.42
54978;BME280;40873;47.522;19.106;2022-08-05T10:26:41;100162.44;;;35.15;24.04
54978;BME280;40873;47.522;19.106;2022-08-05T10:29:20;100159.72;;;35.42;24.07
54978;BME280;40873;47.522;19.106;2022-08-05T10:32:07;100141.84;;;35.40;23.98
54978;BME280;40873;47.522;19.106;2022-08-05T10:34:55;100143.72;;;35.39;24.02
54978;BME280;40873;47.522;19.106;2022-08-05T10:37:28;100139.25;;;35.28;24.45
54978;BME280;40873;47.522;19.106;2022-08-05T10:42:47;100144.69;;;35.87;24.50
54978;BME280;40873;47.522;19.106;2022-08-05T10:45:20;100139.59;;;34.83;24.14
54978;BME280;40873;47.522;19.106;2022-08-05T10:48:45;100145.03;;;35.32;24.09
54978;BME280;40873;47.522;19.106;2022-08-05T10:51:24;100140.00;;;35.83;24.85
54978;BME280;40873;47.522;19.106;2022-08-05T10:53:57;100138.38;;;35.50;24.30
54978;BME280;40873;47.522;19.106;2022-08-05T10:56:29;100141.25;;;35.65;23.89
54978;BME280;40873;47.522;19.106;2022-08-05T10:59:05;100137.44;;;35.71;23.17
54978;BME280;40873;47.522;19.106;2022-08-05T11:02:06;100130.13;;;35.87;22.77
54978;BME280;40873;47.522;19.106;2022-08-05T11:04:44;100122.56;;;35.99;23.45
54978;BME280;40873;47.522;19.106;2022-08-05T11:07:12;100122.59;;;36.04;23.94
54978;BME280;40873;47.522;19.106;2022-08-05T11:09:45;100120.13;;;36.03;22.83
54978;BME280;40873;47.522;19.106;2022-08-05T11:15:05;100122.06;;;35.70;23.52
54978;BME280;40873;47.522;19.106;2022-08-05T11:17:50;100114.94;;;35.69;23.17
54978;BME280;40873;47.522;19.106;2022-08-05T11:20:39;100117.81;;;35.52;23.33
54978;BME280;40873;47.522;19.106;2022-08-05T11:26:23;100115.22;;;36.15;22.90
54978;BME280;40873;47.522;19.106;2022-08-05T11:29:02;100110.16;;;36.44;21.80
54978;BME280;40873;47.522;19.106;2022-08-05T11:31:40;100105.28;;;36.61;22.44
54978;BME280;40873;47.522;19.106;2022-08-05T11:34:40;100108.97;;;36.24;22.29
54978;BME280;40873;47.522;19.106;2022-08-05T11:46:38;100104.19;;;35.67;22.90
54978;BME280;40873;47.522;19.106;2022-08-05T11:49:25;100105.50;;;36.39;22.24
54978;BME280;40873;47.522;19.106;2022-08-05T11:51:53;100108.69;;;36.94;22.70
54978;BME280;40873;47.522;19.106;2022-08-05T11:54:30;100113.69;;;37.53;22.64
54978;BME280;40873;47.522;19.106;2022-08-05T11:57:03;100110.41;;;37.51;20.83
54978;BME280;40873;47.522;19.106;2022-08-05T11:59:50;100108.41;;;38.02;21.96
54978;BME280;40873;47.522;19.106;2022-08-05T12:02:22;100101.81;;;37.93;21.79
54978;BME280;40873;47.522;19.106;2022-08-05T12:04:58;100108.72;;;37.70;22.34
54978;BME280;40873;47.522;19.106;2022-08-05T12:07:33;100096.91;;;37.85;22.21
54978;BME280;40873;47.522;19.106;2022-08-05T12:10:21;100095.13;;;38.20;21.51
54978;BME280;40873;47.522;19.106;2022-08-05T12:13:08;100097.97;;;37.99;20.70
54978;BME280;40873;47.522;19.106;2022-08-05T12:15:43;100094.69;;;37.31;20.48
54978;BME280;40873;47.522;19.106;2022-08-05T12:18:26;100093.31;;;37.54;21.44
54978;BME280;40873;47.522;19.106;2022-08-05T12:21:15;100086.34;;;38.12;20.96
54978;BME280;40873;47.522;19.106;2022-08-05T12:24:03;100082.41;;;38.39;20.10
54978;BME280;40873;47.522;19.106;2022-08-05T12:26:34;100089.44;;;37.91;19.71
54978;BME280;40873;47.522;19.106;2022-08-05T12:29:07;100084.53;;;37.21;20.64
54978;BME280;40873;47.522;19.106;2022-08-05T12:31:53;100086.16;;;37.27;20.86
54978;BME280;40873;47.522;19.106;2022-08-05T12:34:26;100083.38;;;37.99;20.50
54978;BME280;40873;47.522;19.106;2022-08-05T12:37:02;100088.59;;;38.00;21.17
54978;BME280;40873;47.522;19.106;2022-08-05T12:39:39;100078.78;;;38.44;22.09
54978;BME280;40873;47.522;19.106;2022-08-05T12:42:16;100079.06;;;38.91;20.69
54978;BME280;40873;47.522;19.106;2022-08-05T12:44:45;100077.94;;;38.98;18.80
54978;BME280;40873;47.522;19.106;2022-08-05T12:47:24;100073.97;;;39.43;20.04
54978;BME280;40873;47.522;19.106;2022-08-05T12:49:54;100073.09;;;38.25;19.26
54978;BME280;40873;47.522;19.106;2022-08-05T12:52:30;100071.94;;;38.36;19.19
54978;BME280;40873;47.522;19.106;2022-08-05T12:55:16;100066.41;;;38.90;19.30
54978;BME280;40873;47.522;19.106;2022-08-05T12:57:55;100068.63;;;38.39;18.84
54978;BME280;40873;47.522;19.106;2022-08-05T13:00:44;100065.41;;;39.15;18.98
54978;BME280;40873;47.522;19.106;2022-08-05T13:03:38;100061.09;;;38.99;18.76
54978;BME280;40873;47.522;19.106;2022-08-05T13:06:15;100055.78;;;39.08;17.80
54978;BME280;40873;47.522;19.106;2022-08-05T13:08:47;100054.38;;;39.15;17.92
54978;BME280;40873;47.522;19.106;2022-08-05T13:11:19;100047.38;;;38.89;18.50
54978;BME280;40873;47.522;19.106;2022-08-05T13:16:49;100047.16;;;38.31;18.66
54978;BME280;40873;47.522;19.106;2022-08-05T13:19:22;100043.16;;;37.98;18.80
54978;BME280;40873;47.522;19.106;2022-08-05T13:21:49;100051.72;;;37.91;20.14
54978;BME280;40873;47.522;19.106;2022-08-05T13:24:22;100035.78;;;38.92;19.43
54978;BME280;40873;47.522;19.106;2022-08-05T13:27:10;100033.88;;;39.22;20.31
54978;BME280;40873;47.522;19.106;2022-08-05T13:29:57;100020.47;;;39.68;19.17
54978;BME280;40873;47.522;19.106;2022-08-05T13:32:45;100020.00;;;39.85;20.45
54978;BME280;40873;47.522;19.106;2022-08-05T13:35:17;100017.88;;;40.24;17.85
54978;BME280;40873;47.522;19.106;2022-08-05T13:38:04;100018.19;;;39.75;17.67
54978;BME280;40873;47.522;19.106;2022-08-05T13:40:31;100015.00;;;40.11;17.35
54978;BME280;40873;47.522;19.106;2022-08-05T13:43:18;100011.78;;;39.80;18.55
54978;BME280;40873;47.522;19.106;2022-08-05T13:45:47;100016.09;;;39.67;17.51
54978;BME280;40873;47.522;19.106;2022-08-05T13:48:16;100009.00;;;40.27;18.35
54978;BME280;40873;47.522;19.106;2022-08-05T13:51:04;100005.41;;;39.31;18.18
54978;BME280;40873;47.522;19.106;2022-08-05T13:53:32;100006.06;;;39.71;17.51
54978;BME280;40873;47.522;19.106;2022-08-05T13:56:13;100009.06;;;39.22;17.89
54978;BME280;40873;47.522;19.106;2022-08-05T13:58:45;99996.16;;;39.41;17.60
54978;BME280;40873;47.522;19.106;2022-08-05T14:01:19;99997.28;;;39.93;17.70
54978;BME280;40873;47.522;19.106;2022-08-05T14:03:53;99997.19;;;40.60;17.09
54978;BME280;40873;47.522;19.106;2022-08-05T14:06:38;99994.88;;;39.86;17.21